Time;durP1;ratioP1;P1;durP2;ratioP2;P2;SDS_P1;SDS_P2;PMS_P1;PMS_P2;Temp;Humidity;BMP_temperature;BMP_pressure;BME280_temperature;BME280_humidity;BME280_pressure;Samples;Min_cycle;Max_cycle;Signal;HPM_P1;HPM_P2
2022/12/29 00:02:18;;;;;;;5.55;1.63;;;10.70;73.70;;;;;;5031576;28;20096;-79
2022/12/29 00:04:44;;;;;;;2.90;1.40;;;10.70;73.80;;;;;;5030355;28;20052;-79
2022/12/29 00:07:11;;;;;;;2.22;1.30;;;10.70;73.80;;;;;;4996837;28;20053;-79
2022/12/29 00:09:37;;;;;;;3.97;1.38;;;10.70;73.80;;;;;;5048395;28;20045;-78
2022/12/29 00:12:04;;;;;;;4.70;1.52;;;10.70;73.80;;;;;;5018633;28;20446;-79
2022/12/29 00:17:15;;;;;;;2.17;0.90;;;10.80;73.60;;;;;;5047129;28;20034;-79
2022/12/29 00:36:40;;;;;;;3.90;1.20;;;10.70;73.40;;;;;;5015704;28;20502;-77
2022/12/29 00:44:51;;;;;;;2.78;1.15;;;10.80;73.50;;;;;;5015283;28;20046;-78
2022/12/29 00:47:17;;;;;;;2.25;1.48;;;10.70;73.40;;;;;;5047943;28;20045;-77
2022/12/29 00:49:43;;;;;;;2.75;1.40;;;10.70;73.40;;;;;;5015493;28;20034;-77
2022/12/29 00:52:12;;;;;;;3.72;1.00;;;10.70;73.50;;;;;;5017798;28;20095;-78
2022/12/29 00:54:39;;;;;;;2.40;1.20;;;10.70;73.40;;;;;;5019861;28;20125;-78
2022/12/29 00:57:07;;;;;;;2.40;1.23;;;10.80;73.40;;;;;;5034054;28;20084;-78
2022/12/29 00:59:35;;;;;;;1.23;1.10;;;10.70;73.30;;;;;;5017480;28;20116;-79
2022/12/29 01:02:01;;;;;;;3.80;1.20;;;10.70;73.10;;;;;;5019911;28;20366;-80
2022/12/29 01:04:28;;;;;;;3.65;1.02;;;10.70;73.10;;;;;;5001720;28;20045;-77
2022/12/29 01:06:54;;;;;;;2.30;1.08;;;10.70;73.00;;;;;;5019407;28;20504;-78
2022/12/29 01:12:06;;;;;;;1.17;0.50;;;10.70;72.90;;;;;;5009024;28;20049;-77
2022/12/29 01:14:32;;;;;;;2.28;1.00;;;10.70;72.70;;;;;;5011433;28;20057;-78
2022/12/29 01:16:58;;;;;;;2.33;0.80;;;10.70;72.60;;;;;;5017450;28;20133;-80
2022/12/29 01:19:24;;;;;;;3.22;1.15;;;10.70;72.60;;;;;;5018723;28;20120;-78
2022/12/29 01:21:50;;;;;;;2.20;0.85;;;10.70;72.60;;;;;;5014787;28;20029;-78
2022/12/29 01:24:19;;;;;;;1.98;0.77;;;10.70;72.50;;;;;;5016813;28;20376;-79
2022/12/29 01:26:46;;;;;;;2.60;0.80;;;10.70;72.50;;;;;;5002831;28;20037;-78
2022/12/29 01:29:12;;;;;;;4.22;0.93;;;10.70;72.50;;;;;;5025394;28;20041;-79
2022/12/29 01:31:38;;;;;;;0.98;0.80;;;10.70;72.50;;;;;;5016600;28;20579;-78
2022/12/29 01:34:05;;;;;;;3.08;0.70;;;10.70;72.40;;;;;;5016586;28;20125;-77
2022/12/29 01:36:32;;;;;;;4.20;1.00;;;10.70;72.40;;;;;;4998891;28;20038;-76
2022/12/29 01:38:58;;;;;;;1.60;0.90;;;10.80;72.30;;;;;;5038334;28;20448;-76
2022/12/29 01:41:24;;;;;;;1.85;0.82;;;10.70;72.20;;;;;;5001514;28;20135;-77
2022/12/29 01:43:56;;;;;;;2.00;0.80;;;10.70;72.10;;;;;;5034245;28;20040;-79
2022/12/29 01:46:46;;;;;;;2.42;0.95;;;10.70;72.00;;;;;;5001363;28;20041;-78
2022/12/29 01:49:26;;;;;;;4.72;0.90;;;10.70;72.00;;;;;;5018672;28;20045;-78
2022/12/29 01:51:57;;;;;;;2.85;0.65;;;10.70;72.10;;;;;;5019306;28;20045;-77
2022/12/29 01:54:32;;;;;;;1.00;0.80;;;10.70;72.00;;;;;;5049910;28;20042;-76
2022/12/29 01:57:01;;;;;;;3.80;0.70;;;10.70;72.00;;;;;;5016746;28;20033;-79
2022/12/29 01:59:34;;;;;;;2.20;0.85;;;10.70;72.00;;;;;;5010743;28;20040;-75
2022/12/29 02:02:01;;;;;;;3.08;0.70;;;10.70;71.90;;;;;;5023682;28;20042;-79
2022/12/29 02:04:29;;;;;;;2.50;0.90;;;10.70;71.70;;;;;;5015147;28;20046;-79
2022/12/29 02:07:06;;;;;;;1.95;0.73;;;10.70;71.60;;;;;;5018366;28;20069;-76
2022/12/29 02:09:33;;;;;;;2.17;0.77;;;10.70;71.60;;;;;;5049399;28;20128;-79
2022/12/29 02:12:00;;;;;;;1.38;0.47;;;10.70;71.70;;;;;;5017371;28;20033;-80
2022/12/29 02:14:26;;;;;;;1.85;0.70;;;10.70;71.60;;;;;;5000565;28;20040;-79
2022/12/29 02:17:11;;;;;;;2.80;0.80;;;10.70;71.70;;;;;;5016772;28;20056;-79
2022/12/29 02:20:10;;;;;;;2.25;1.00;;;10.70;71.60;;;;;;4999112;28;20042;-78
2022/12/29 02:23:27;;;;;;;2.08;0.90;;;10.70;71.50;;;;;;5017221;28;20415;-77
2022/12/29 02:26:35;;;;;;;2.75;0.95;;;10.70;71.30;;;;;;5003510;28;20151;-77
2022/12/29 02:29:01;;;;;;;1.80;0.90;;;10.70;71.30;;;;;;4983232;28;20096;-79
2022/12/29 02:31:46;;;;;;;2.33;0.68;;;10.70;71.10;;;;;;5020353;28;20034;-76
2022/12/29 02:34:28;;;;;;;4.57;1.08;;;10.70;71.20;;;;;;5006407;28;20037;-75
2022/12/29 02:37:16;;;;;;;3.15;0.90;;;10.70;71.20;;;;;;5016410;28;20057;-78
2022/12/29 02:40:18;;;;;;;2.63;0.88;;;10.70;71.40;;;;;;5036313;28;20546;-78
2022/12/29 02:42:51;;;;;;;2.50;1.13;;;10.70;71.40;;;;;;5018210;28;20049;-76
2022/12/29 02:45:28;;;;;;;4.53;1.00;;;10.70;71.20;;;;;;5034721;28;20373;-78
2022/12/29 02:48:23;;;;;;;2.30;1.10;;;10.70;71.30;;;;;;5068967;28;20554;-79
2022/12/29 02:51:01;;;;;;;2.70;1.30;;;10.70;71.30;;;;;;5011504;28;20033;-79
2022/12/29 02:56:14;;;;;;;1.88;0.68;;;10.70;71.10;;;;;;5052301;28;20117;-78
2022/12/29 02:58:41;;;;;;;3.78;1.08;;;10.70;71.00;;;;;;5035014;28;20057;-79
2022/12/29 03:01:10;;;;;;;2.53;0.90;;;10.70;70.90;;;;;;5039685;28;20052;-77
2022/12/29 03:03:47;;;;;;;2.15;0.90;;;10.70;70.90;;;;;;5068647;28;20037;-78
2022/12/29 03:06:34;;;;;;;2.75;0.80;;;10.70;70.80;;;;;;5042629;28;20033;-79
2022/12/29 03:09:06;;;;;;;3.75;0.90;;;10.60;70.80;;;;;;5068705;28;20427;-79
2022/12/29 03:17:35;;;;;;;2.63;0.90;;;10.60;70.80;;;;;;5033148;28;20403;-79
2022/12/29 03:20:10;;;;;;;4.75;1.05;;;10.60;70.80;;;;;;5020159;28;20048;-79
2022/12/29 03:22:44;;;;;;;2.65;0.80;;;10.60;71.00;;;;;;5022007;28;20048;-79
2022/12/29 03:25:28;;;;;;;2.80;1.23;;;10.60;71.00;;;;;;5034778;28;20036;-80
2022/12/29 03:28:12;;;;;;;4.75;1.05;;;10.60;71.00;;;;;;5035783;28;20049;-80
2022/12/29 03:30:44;;;;;;;1.70;1.10;;;10.60;70.90;;;;;;5025494;28;20057;-78
2022/12/29 03:33:15;;;;;;;1.42;0.85;;;10.60;70.80;;;;;;5050227;28;20132;-77
2022/12/29 03:35:44;;;;;;;3.28;1.30;;;10.60;70.80;;;;;;5035861;28;20037;-79
2022/12/29 03:38:44;;;;;;;2.80;1.00;;;10.60;70.70;;;;;;5049072;28;20540;-80
2022/12/29 03:41:14;;;;;;;4.72;1.25;;;10.60;70.70;;;;;;5031172;28;20043;-76
2022/12/29 03:43:40;;;;;;;2.30;1.33;;;10.60;70.70;;;;;;5041720;28;20045;-75
2022/12/29 03:46:06;;;;;;;3.88;1.58;;;10.60;70.60;;;;;;5033847;28;20041;-74
2022/12/29 03:48:33;;;;;;;2.80;1.10;;;10.60;70.70;;;;;;5068820;28;20029;-75
2022/12/29 03:50:59;;;;;;;2.55;1.20;;;10.60;70.80;;;;;;5034583;28;20044;-76
2022/12/29 03:53:25;;;;;;;3.25;1.40;;;10.60;70.70;;;;;;5020215;28;20029;-80
2022/12/29 03:55:51;;;;;;;2.90;1.33;;;10.60;70.80;;;;;;5041872;28;20230;-79
2022/12/29 03:58:17;;;;;;;3.08;1.13;;;10.60;70.90;;;;;;5034963;28;20128;-78
2022/12/29 04:00:57;;;;;;;4.70;1.33;;;10.60;71.00;;;;;;5021017;28;20029;-78
2022/12/29 04:03:23;;;;;;;2.78;1.08;;;10.60;70.80;;;;;;5036816;28;20037;-79
2022/12/29 04:05:50;;;;;;;2.60;1.10;;;10.60;70.80;;;;;;5066855;28;20061;-79
2022/12/29 04:08:16;;;;;;;2.40;0.95;;;10.50;70.80;;;;;;5019871;28;20033;-78
2022/12/29 04:10:42;;;;;;;2.80;1.20;;;10.50;70.80;;;;;;5048841;28;20420;-80
2022/12/29 04:13:09;;;;;;;3.88;1.30;;;10.50;70.70;;;;;;5017745;28;20044;-78
2022/12/29 04:15:36;;;;;;;2.33;1.17;;;10.50;70.40;;;;;;5020911;28;20021;-76
2022/12/29 04:18:02;;;;;;;2.35;1.13;;;10.60;70.30;;;;;;5023879;28;20615;-77
2022/12/29 04:23:13;;;;;;;3.00;0.90;;;10.50;70.80;;;;;;5048284;28;20037;-76
2022/12/29 04:25:39;;;;;;;2.17;1.17;;;10.50;70.20;;;;;;5033254;28;20451;-77
2022/12/29 04:28:08;;;;;;;3.40;1.30;;;10.50;70.20;;;;;;5016416;28;20029;-75
2022/12/29 04:30:40;;;;;;;1.45;1.10;;;10.50;70.00;;;;;;5035085;28;20123;-78
2022/12/29 04:33:29;;;;;;;3.15;1.40;;;10.50;70.10;;;;;;5014217;28;20504;-78
2022/12/29 04:35:55;;;;;;;2.00;1.05;;;10.50;70.30;;;;;;5030010;28;20044;-76
2022/12/29 04:38:24;;;;;;;3.38;1.30;;;10.50;70.50;;;;;;5020851;28;20033;-79
2022/12/29 04:40:51;;;;;;;2.55;1.17;;;10.50;70.70;;;;;;5043679;28;20038;-80
2022/12/29 04:43:21;;;;;;;3.00;1.10;;;10.50;70.80;;;;;;5004076;28;20052;-81
2022/12/29 04:46:03;;;;;;;2.92;1.38;;;10.50;70.40;;;;;;4998806;28;20116;-80
2022/12/29 04:48:37;;;;;;;5.70;1.77;;;10.40;69.90;;;;;;5019003;28;20029;-81
2022/12/29 04:51:22;;;;;;;5.20;1.70;;;10.40;70.00;;;;;;5014300;28;20081;-81
2022/12/29 04:53:50;;;;;;;5.40;1.48;;;10.40;69.10;;;;;;5029581;28;20034;-81
2022/12/29 04:56:16;;;;;;;3.10;1.80;;;10.40;69.00;;;;;;4980903;28;20042;-80
2022/12/29 04:58:42;;;;;;;8.32;1.80;;;10.40;68.90;;;;;;5010408;28;20045;-80
2022/12/29 05:01:08;;;;;;;7.65;1.70;;;10.40;68.80;;;;;;5016267;28;20029;-81
2022/12/29 05:03:34;;;;;;;6.60;1.65;;;10.30;68.70;;;;;;5015614;28;20037;-82
2022/12/29 05:06:00;;;;;;;3.47;1.40;;;10.30;68.80;;;;;;5013946;28;20500;-84
2022/12/29 05:08:27;;;;;;;2.30;1.40;;;10.30;68.90;;;;;;4997161;28;20514;-83
2022/12/29 05:10:53;;;;;;;2.97;1.80;;;10.30;68.80;;;;;;4986780;28;20040;-82
2022/12/29 05:13:20;;;;;;;5.25;1.88;;;10.20;68.70;;;;;;5017261;28;20038;-81
2022/12/29 05:15:51;;;;;;;1.40;1.25;;;10.20;68.70;;;;;;5017692;28;20136;-81
2022/12/29 05:18:17;;;;;;;3.80;2.22;;;10.20;68.80;;;;;;5001163;28;20095;-81
2022/12/29 05:20:44;;;;;;;2.47;1.33;;;10.20;68.70;;;;;;5003746;28;20053;-81
2022/12/29 05:23:10;;;;;;;4.78;2.13;;;10.20;68.60;;;;;;5001480;28;20041;-80
2022/12/29 05:25:37;;;;;;;5.65;1.77;;;10.10;68.50;;;;;;5016916;28;20073;-80
2022/12/29 05:28:14;;;;;;;4.43;1.80;;;10.10;68.40;;;;;;5016317;28;20412;-82
2022/12/29 05:30:50;;;;;;;5.10;1.80;;;10.10;68.40;;;;;;5018782;28;20033;-82
2022/12/29 05:33:19;;;;;;;6.53;1.73;;;10.10;68.30;;;;;;5002398;28;20060;-82
2022/12/29 05:35:45;;;;;;;3.90;1.70;;;10.10;68.20;;;;;;5018388;28;20034;-82
2022/12/29 05:38:12;;;;;;;4.82;1.52;;;10.00;68.10;;;;;;4987327;28;20087;-80
2022/12/29 05:40:38;;;;;;;2.78;1.63;;;10.00;68.10;;;;;;5023164;28;20033;-81
2022/12/29 05:43:16;;;;;;;2.67;1.75;;;10.00;68.00;;;;;;5006912;28;20448;-82
2022/12/29 05:46:20;;;;;;;5.78;1.60;;;10.00;68.00;;;;;;4997062;28;20068;-83
2022/12/29 05:48:57;;;;;;;2.42;1.85;;;10.00;68.00;;;;;;4979940;28;20117;-82
2022/12/29 05:51:42;;;;;;;5.63;2.17;;;10.00;68.00;;;;;;5016996;28;20096;-82
2022/12/29 05:54:08;;;;;;;1.98;1.48;;;10.00;68.00;;;;;;5002548;28;20694;-82
2022/12/29 05:56:34;;;;;;;2.25;1.60;;;9.90;67.90;;;;;;5018812;28;20030;-78
2022/12/29 05:59:01;;;;;;;5.03;2.00;;;9.90;67.90;;;;;;5011918;28;20108;-78
2022/12/29 06:01:27;;;;;;;4.60;2.15;;;9.90;67.90;;;;;;5015733;28;20034;-78
2022/12/29 06:03:54;;;;;;;3.72;2.00;;;9.90;67.90;;;;;;5011996;28;20042;-79
2022/12/29 06:06:20;;;;;;;15.30;8.57;;;9.80;68.30;;;;;;5006546;28;20037;-87
2022/12/29 06:08:47;;;;;;;12.48;6.53;;;9.80;64.90;;;;;;4986938;28;20586;-85
2022/12/29 06:11:13;;;;;;;9.40;6.38;;;9.60;62.40;;;;;;4980773;28;20092;-82
2022/12/29 06:13:44;;;;;;;8.35;4.15;;;9.40;60.70;;;;;;4970482;28;20045;-83
2022/12/29 06:16:11;;;;;;;5.78;3.47;;;9.20;59.80;;;;;;4987222;28;20030;-85
2022/12/29 06:18:38;;;;;;;8.63;3.20;;;9.10;59.10;;;;;;5005391;28;20038;-88
2022/12/29 06:21:05;;;;;;;4.68;2.60;;;8.90;69.10;;;;;;5083266;28;20048;-85
2022/12/29 06:23:31;;;;;;;5.38;2.53;;;9.00;76.30;;;;;;5036034;28;20049;-89
2022/12/29 06:25:58;;;;;;;9.70;2.72;;;9.10;79.70;;;;;;5028680;28;20065;-79
2022/12/29 06:28:24;;;;;;;8.85;2.63;;;9.30;76.80;;;;;;5034943;28;20577;-84
2022/12/29 06:30:50;;;;;;;4.32;2.38;;;9.40;75.50;;;;;;5047923;28;20108;-83
2022/12/29 06:33:18;;;;;;;5.13;2.55;;;9.50;74.70;;;;;;5031773;28;20040;-82
2022/12/29 06:35:45;;;;;;;3.33;2.22;;;9.60;73.30;;;;;;5029729;28;20041;-82
2022/12/29 06:38:11;;;;;;;5.63;2.78;;;9.60;71.50;;;;;;5025612;28;20509;-80
2022/12/29 06:40:37;;;;;;;6.15;2.83;;;9.60;70.00;;;;;;5022514;28;20033;-81
2022/12/29 06:43:20;;;;;;;4.75;2.80;;;9.60;68.90;;;;;;5031268;28;20049;-84
2022/12/29 06:45:58;;;;;;;4.43;2.67;;;9.60;67.90;;;;;;5038658;28;20053;-81
2022/12/29 06:48:24;;;;;;;4.90;2.67;;;9.60;67.70;;;;;;5007327;28;20038;-82
2022/12/29 06:50:50;;;;;;;3.88;2.53;;;9.60;66.60;;;;;;5058967;28;20089;-83
2022/12/29 06:53:16;;;;;;;5.07;3.17;;;9.60;66.20;;;;;;5058704;28;20064;-85
2022/12/29 06:55:42;;;;;;;5.10;2.40;;;9.60;65.80;;;;;;5036405;28;20025;-83
2022/12/29 06:58:08;;;;;;;3.70;2.38;;;9.50;65.60;;;;;;5039585;28;20034;-83
2022/12/29 07:00:34;;;;;;;4.97;2.90;;;9.50;65.40;;;;;;5053347;28;20040;-83
2022/12/29 07:03:00;;;;;;;4.60;3.25;;;9.50;65.80;;;;;;5044668;28;20132;-82
2022/12/29 07:05:27;;;;;;;5.65;3.00;;;9.50;65.50;;;;;;5023872;28;20064;-84
2022/12/29 07:07:54;;;;;;;5.00;2.50;;;9.40;65.30;;;;;;5039124;28;20037;-85
2022/12/29 07:10:21;;;;;;;5.28;2.40;;;9.40;65.20;;;;;;5049264;28;20124;-82
2022/12/29 07:12:47;;;;;;;4.30;2.65;;;9.40;65.10;;;;;;5042798;28;20040;-84
2022/12/29 07:15:13;;;;;;;5.25;2.35;;;9.40;65.10;;;;;;5024182;28;20041;-81
2022/12/29 07:17:39;;;;;;;5.35;2.70;;;9.40;65.00;;;;;;5021604;28;20037;-82
2022/12/29 07:20:05;;;;;;;6.15;3.20;;;9.30;64.90;;;;;;5045230;28;20143;-84
2022/12/29 07:22:31;;;;;;;6.45;2.40;;;9.30;64.60;;;;;;5041008;28;20064;-83
2022/12/29 07:24:57;;;;;;;4.85;2.90;;;9.30;64.50;;;;;;5040083;28;20408;-82
2022/12/29 07:27:23;;;;;;;6.53;2.55;;;9.30;64.30;;;;;;5050388;28;20560;-86
2022/12/29 07:29:49;;;;;;;5.70;2.90;;;9.30;64.20;;;;;;5047419;28;20124;-78
2022/12/29 07:32:15;;;;;;;5.65;3.20;;;9.20;64.00;;;;;;5017155;28;20036;-79
2022/12/29 07:34:41;;;;;;;5.57;2.90;;;9.20;64.00;;;;;;5036063;28;20045;-79
2022/12/29 07:37:07;;;;;;;7.15;3.13;;;9.20;63.90;;;;;;5036262;28;20464;-84
2022/12/29 07:39:33;;;;;;;8.18;2.67;;;9.10;68.80;;;;;;5036136;28;20029;-78
2022/12/29 07:41:59;;;;;;;10.35;2.40;;;9.30;77.70;;;;;;5037680;28;20530;-85
2022/12/29 07:44:26;;;;;;;8.32;2.45;;;9.50;80.70;;;;;;5032784;28;20044;-76
2022/12/29 07:47:10;;;;;;;5.25;3.00;;;9.70;77.10;;;;;;5036892;28;20033;-82
2022/12/29 07:49:36;;;;;;;5.68;3.20;;;9.80;73.60;;;;;;5036724;28;20036;-89
2022/12/29 07:52:02;;;;;;;7.55;3.47;;;9.80;70.50;;;;;;5017677;28;20515;-78
2022/12/29 07:54:28;;;;;;;9.20;3.60;;;9.80;69.60;;;;;;5034529;28;20052;-77
2022/12/29 07:56:54;;;;;;;8.38;3.80;;;9.80;70.40;;;;;;5039062;28;20040;-79
2022/12/29 07:59:20;;;;;;;5.60;3.25;;;9.80;69.30;;;;;;5035017;28;20034;-78
2022/12/29 08:01:47;;;;;;;5.93;3.35;;;9.80;68.10;;;;;;5034393;28;20041;-77
2022/12/29 08:04:13;;;;;;;8.90;3.60;;;9.80;67.30;;;;;;5033868;28;20229;-76
2022/12/29 08:06:39;;;;;;;5.13;3.00;;;9.80;66.50;;;;;;5034267;28;20642;-78
2022/12/29 08:09:05;;;;;;;6.05;3.17;;;9.70;65.80;;;;;;5034055;28;20047;-77
2022/12/29 08:11:31;;;;;;;4.93;3.45;;;9.70;65.30;;;;;;5035061;28;20038;-77
2022/12/29 08:13:56;;;;;;;8.95;3.92;;;9.60;65.00;;;;;;5030662;28;20049;-77
2022/12/29 08:16:22;;;;;;;7.05;3.50;;;9.60;65.30;;;;;;5034586;28;20040;-78
2022/12/29 08:18:48;;;;;;;6.75;3.42;;;9.50;64.40;;;;;;5036590;28;20131;-76
2022/12/29 08:21:14;;;;;;;5.70;3.20;;;9.50;64.30;;;;;;5035645;28;20119;-76
2022/12/29 08:23:40;;;;;;;6.43;3.42;;;9.50;64.30;;;;;;5016621;28;20507;-76
2022/12/29 08:26:06;;;;;;;8.95;3.65;;;9.40;64.50;;;;;;5035345;28;20029;-76
2022/12/29 08:28:33;;;;;;;7.53;3.20;;;9.40;64.70;;;;;;5034307;28;20036;-75
2022/12/29 08:31:01;;;;;;;6.13;3.17;;;9.40;68.60;;;;;;5050376;28;20160;-74
2022/12/29 08:33:27;;;;;;;6.50;2.88;;;9.40;75.10;;;;;;5031822;28;20411;-73
2022/12/29 08:36:00;;;;;;;5.43;2.70;;;9.60;80.00;;;;;;5033835;28;20068;-72
2022/12/29 08:38:27;;;;;;;6.63;2.33;;;9.70;80.70;;;;;;5033765;28;20037;-78
2022/12/29 08:40:53;;;;;;;5.50;2.58;;;9.80;81.20;;;;;;5032964;28;20033;-73
2022/12/29 08:43:19;;;;;;;6.88;2.92;;;10.00;82.20;;;;;;5035145;28;20056;-73
2022/12/29 08:45:45;;;;;;;10.57;3.10;;;10.10;79.90;;;;;;5035261;28;20111;-73
2022/12/29 08:48:11;;;;;;;8.77;3.40;;;10.20;78.20;;;;;;5032358;28;20041;-73
2022/12/29 08:50:37;;;;;;;4.35;2.40;;;10.30;77.40;;;;;;5035460;28;20064;-74
2022/12/29 08:53:03;;;;;;;5.22;2.90;;;10.40;78.80;;;;;;5030487;28;20095;-74
2022/12/29 08:55:29;;;;;;;5.32;2.63;;;10.60;78.00;;;;;;5033881;28;20766;-74
2022/12/29 08:57:55;;;;;;;7.32;2.97;;;10.60;76.60;;;;;;5033188;28;20116;-74
2022/12/29 09:00:23;;;;;;;5.95;2.72;;;10.70;75.30;;;;;;5032235;28;20034;-75
2022/12/29 09:02:50;;;;;;;4.15;2.30;;;10.80;74.20;;;;;;5032478;28;20716;-74
2022/12/29 09:05:16;;;;;;;6.60;2.60;;;10.80;73.40;;;;;;5033340;28;20065;-74
2022/12/29 09:07:41;;;;;;;7.78;2.90;;;10.80;72.70;;;;;;5032929;28;20045;-75
2022/12/29 09:10:08;;;;;;;4.75;2.80;;;10.80;72.40;;;;;;5034100;28;20095;-74
2022/12/29 09:12:34;;;;;;;5.05;3.00;;;10.90;72.20;;;;;;5035987;28;20043;-73
2022/12/29 09:15:00;;;;;;;4.72;2.97;;;10.90;71.80;;;;;;5039120;28;20049;-76
2022/12/29 09:17:44;;;;;;;6.72;2.60;;;10.90;73.10;;;;;;5038763;28;20036;-75
2022/12/29 09:20:15;;;;;;;9.55;2.55;;;10.90;72.90;;;;;;5037332;28;20075;-74
2022/12/29 09:22:42;;;;;;;4.03;2.47;;;10.90;72.90;;;;;;5036482;28;20542;-75
2022/12/29 09:25:09;;;;;;;6.15;2.80;;;10.90;72.50;;;;;;5038169;28;20120;-75
2022/12/29 09:27:36;;;;;;;4.97;3.05;;;10.90;72.20;;;;;;5039336;28;20108;-76
2022/12/29 09:30:04;;;;;;;5.45;3.30;;;10.90;71.90;;;;;;5037793;28;20041;-76
2022/12/29 09:32:30;;;;;;;5.35;2.75;;;10.90;71.60;;;;;;5038153;28;20097;-74
2022/12/29 09:34:56;;;;;;;9.93;3.13;;;10.90;71.30;;;;;;5038040;28;20572;-74
2022/12/29 09:37:22;;;;;;;6.03;3.05;;;10.90;71.00;;;;;;5038194;28;20044;-74
2022/12/29 09:39:48;;;;;;;6.10;3.38;;;10.90;70.60;;;;;;5038766;28;20441;-76
2022/12/29 09:42:25;;;;;;;7.63;3.50;;;10.90;70.40;;;;;;5038017;28;20029;-75
2022/12/29 09:45:18;;;;;;;8.23;3.40;;;10.90;70.10;;;;;;5032330;28;20470;-75
2022/12/29 09:47:46;;;;;;;11.25;4.05;;;10.90;70.20;;;;;;5042380;28;20044;-80
2022/12/29 09:50:21;;;;;;;6.28;3.08;;;10.90;70.20;;;;;;5040278;28;20033;-82
2022/12/29 09:53:00;;;;;;;4.07;2.92;;;10.90;70.30;;;;;;5036040;28;20068;-82
2022/12/29 09:55:36;;;;;;;8.55;3.08;;;10.90;70.20;;;;;;5027187;28;20119;-79
2022/12/29 09:58:16;;;;;;;5.07;3.30;;;10.90;70.20;;;;;;5038973;28;20030;-81
2022/12/29 10:00:51;;;;;;;5.40;3.00;;;10.80;70.20;;;;;;5017200;28;20049;-81
2022/12/29 10:03:20;;;;;;;5.43;2.95;;;10.90;70.90;;;;;;5018621;28;20445;-79
2022/12/29 10:05:48;;;;;;;6.07;3.03;;;10.90;71.70;;;;;;5017312;28;20033;-78
2022/12/29 10:08:32;;;;;;;8.52;3.30;;;10.90;71.60;;;;;;5017471;28;20029;-78
2022/12/29 10:11:19;;;;;;;7.13;3.80;;;10.90;71.20;;;;;;5017168;28;20040;-78
2022/12/29 10:14:23;;;;;;;8.25;3.97;;;10.90;70.70;;;;;;5017532;28;20033;-77
2022/12/29 10:16:55;;;;;;;7.20;3.95;;;10.90;70.30;;;;;;5017341;28;20125;-77
2022/12/29 10:19:40;;;;;;;6.60;3.45;;;10.90;69.80;;;;;;5016566;28;20400;-80
2022/12/29 10:22:31;;;;;;;5.55;3.47;;;10.80;69.60;;;;;;5017351;28;20048;-78
2022/12/29 10:24:58;;;;;;;7.13;3.63;;;10.90;69.60;;;;;;5032016;28;20167;-78
2022/12/29 10:27:24;;;;;;;9.05;3.72;;;10.80;69.30;;;;;;5018292;28;20037;-79
2022/12/29 10:29:56;;;;;;;7.05;4.13;;;10.80;69.10;;;;;;4987730;28;20038;-78
2022/12/29 10:32:39;;;;;;;7.85;3.83;;;10.80;69.00;;;;;;5001918;28;20030;-79
2022/12/29 10:35:18;;;;;;;6.20;3.97;;;10.80;68.90;;;;;;5019825;28;20056;-80
2022/12/29 10:37:59;;;;;;;7.13;4.10;;;10.80;69.00;;;;;;5019277;28;20057;-80
2022/12/29 10:40:47;;;;;;;6.88;4.60;;;10.80;68.90;;;;;;5020896;28;20033;-79
2022/12/29 10:43:25;;;;;;;7.93;4.40;;;10.80;68.80;;;;;;5020710;28;20139;-79
2022/12/29 10:45:59;;;;;;;5.90;4.20;;;10.70;68.70;;;;;;5021019;28;20046;-78
2022/12/29 10:48:30;;;;;;;5.97;4.20;;;10.70;68.60;;;;;;5023086;28;20065;-77
2022/12/29 10:50:58;;;;;;;7.07;4.63;;;10.70;68.70;;;;;;5031313;28;20585;-80
2022/12/29 10:53:31;;;;;;;8.95;4.72;;;10.70;68.70;;;;;;5023538;28;20034;-79
2022/12/29 10:56:00;;;;;;;8.57;4.90;;;10.70;68.70;;;;;;5013469;28;20038;-80
2022/12/29 10:58:27;;;;;;;8.38;4.65;;;10.70;68.70;;;;;;5040894;28;20046;-80
2022/12/29 11:00:54;;;;;;;8.00;5.03;;;10.70;68.80;;;;;;5014636;28;20032;-81
2022/12/29 11:03:54;;;;;;;8.80;5.30;;;10.70;68.90;;;;;;5026072;28;20033;-78
2022/12/29 11:06:27;;;;;;;9.48;5.38;;;10.70;69.30;;;;;;5014846;28;20397;-78
2022/12/29 11:09:21;;;;;;;9.10;5.72;;;10.70;69.40;;;;;;5029212;28;20063;-79
2022/12/29 11:11:47;;;;;;;9.00;5.60;;;10.60;69.60;;;;;;5037207;28;20044;-78
2022/12/29 11:14:19;;;;;;;9.90;5.53;;;10.60;69.70;;;;;;5022908;28;20048;-77
2022/12/29 11:17:01;;;;;;;11.32;5.55;;;10.60;69.80;;;;;;5043940;28;20507;-78
2022/12/29 11:19:33;;;;;;;9.32;5.18;;;10.60;69.70;;;;;;5030333;28;20033;-78
2022/12/29 11:22:25;;;;;;;10.77;5.10;;;10.60;69.70;;;;;;5047036;28;20127;-78
2022/12/29 11:24:52;;;;;;;10.13;5.47;;;10.60;70.30;;;;;;5023050;28;20547;-78
2022/12/29 11:27:24;;;;;;;8.02;5.07;;;10.60;69.50;;;;;;5024031;28;20149;-78
2022/12/29 11:29:52;;;;;;;8.52;5.40;;;10.60;69.40;;;;;;5023677;28;20042;-77
2022/12/29 11:32:23;;;;;;;7.53;4.70;;;10.60;69.40;;;;;;5023382;28;20095;-79
2022/12/29 11:34:49;;;;;;;19.48;5.57;;;10.60;69.40;;;;;;5022898;28;20389;-77
2022/12/29 11:37:23;;;;;;;12.15;5.40;;;10.50;69.30;;;;;;5057874;28;20049;-78
2022/12/29 11:39:56;;;;;;;8.90;5.50;;;10.50;69.20;;;;;;5032751;28;20029;-79
2022/12/29 11:42:37;;;;;;;7.55;5.57;;;10.60;69.30;;;;;;5005039;28;20420;-78
2022/12/29 11:45:25;;;;;;;7.82;5.93;;;10.50;69.30;;;;;;5026045;28;20124;-79
2022/12/29 11:47:55;;;;;;;7.90;5.80;;;10.50;69.30;;;;;;5022856;28;20030;-79
2022/12/29 11:50:31;;;;;;;10.32;5.97;;;10.50;69.30;;;;;;5030695;28;20463;-79
2022/12/29 11:53:04;;;;;;;7.68;5.80;;;10.50;69.30;;;;;;5027620;28;20034;-78
2022/12/29 11:55:31;;;;;;;6.43;5.10;;;10.50;69.20;;;;;;5022216;28;20045;-79
2022/12/29 11:58:01;;;;;;;9.38;6.13;;;10.50;69.80;;;;;;5030651;28;20652;-79
2022/12/29 12:00:30;;;;;;;8.68;5.45;;;10.50;69.10;;;;;;5020876;28;20033;-79
2022/12/29 12:03:16;;;;;;;13.95;5.32;;;10.50;69.10;;;;;;5026090;28;21451;-79
2022/12/29 12:05:57;;;;;;;8.05;5.70;;;10.40;69.00;;;;;;5021786;28;20047;-79
2022/12/29 12:08:34;;;;;;;8.52;5.43;;;10.40;68.90;;;;;;4992102;28;20042;-78
2022/12/29 12:11:16;;;;;;;7.57;4.82;;;10.50;68.90;;;;;;5022002;28;20412;-78
2022/12/29 12:14:15;;;;;;;7.70;5.20;;;10.40;68.80;;;;;;5007182;28;20439;-79
2022/12/29 12:17:37;;;;;;;11.65;5.78;;;10.40;68.90;;;;;;5013482;28;20034;-80
2022/12/29 12:20:24;;;;;;;6.43;5.10;;;10.40;68.80;;;;;;5027879;28;20064;-79
2022/12/29 12:23:24;;;;;;;9.45;5.10;;;10.40;68.80;;;;;;5008044;28;20042;-79
2022/12/29 12:26:04;;;;;;;10.48;5.10;;;10.40;69.10;;;;;;5044277;28;20076;-80
2022/12/29 12:28:48;;;;;;;7.07;4.88;;;10.40;68.70;;;;;;5026138;28;20025;-80
2022/12/29 12:31:46;;;;;;;8.68;6.13;;;10.30;68.70;;;;;;5026127;28;20060;-80
2022/12/29 12:34:36;;;;;;;8.00;5.38;;;10.30;68.70;;;;;;5016085;28;20444;-79
2022/12/29 12:37:18;;;;;;;7.50;4.82;;;10.30;68.50;;;;;;5005052;28;20029;-80
2022/12/29 12:40:08;;;;;;;10.15;5.47;;;10.30;68.40;;;;;;5013455;28;20052;-79
2022/12/29 12:42:50;;;;;;;8.32;5.05;;;10.30;68.40;;;;;;5034216;28;20581;-85
2022/12/29 12:45:36;;;;;;;7.60;4.78;;;10.30;68.50;;;;;;5040588;28;20037;-84
2022/12/29 12:48:24;;;;;;;7.07;4.75;;;10.30;68.50;;;;;;5024086;28;20030;-84
2022/12/29 12:51:24;;;;;;;7.65;4.32;;;10.30;68.60;;;;;;5034890;28;20033;-84
2022/12/29 12:54:20;;;;;;;11.23;5.20;;;10.30;69.30;;;;;;5017687;28;20103;-83
2022/12/29 12:57:11;;;;;;;5.68;4.40;;;10.30;69.40;;;;;;5017157;28;20028;-86
2022/12/29 12:59:50;;;;;;;7.05;4.00;;;10.30;69.10;;;;;;5050660;28;20060;-86
2022/12/29 13:02:59;;;;;;;8.13;4.60;;;10.30;68.90;;;;;;5051575;28;20044;-84
2022/12/29 13:05:37;;;;;;;6.70;4.28;;;10.20;68.70;;;;;;5004161;28;20048;-83
2022/12/29 13:08:24;;;;;;;8.07;4.35;;;10.20;68.60;;;;;;5049425;28;20069;-85
2022/12/29 13:10:53;;;;;;;21.08;4.65;;;10.20;68.60;;;;;;5020142;28;20053;-83
2022/12/29 13:13:41;;;;;;;8.10;4.43;;;10.20;69.10;;;;;;5050212;28;20041;-82
2022/12/29 13:16:34;;;;;;;5.95;3.95;;;10.30;69.50;;;;;;5066484;28;20041;-84
2022/12/29 13:19:19;;;;;;;12.70;5.03;;;10.20;69.60;;;;;;5033895;28;20095;-82
2022/12/29 13:22:09;;;;;;;7.28;4.43;;;10.30;69.40;;;;;;5032975;28;20041;-81
2022/12/29 13:24:42;;;;;;;10.45;4.65;;;10.20;69.20;;;;;;5034886;28;20045;-78
2022/12/29 13:27:14;;;;;;;8.13;4.28;;;10.30;69.10;;;;;;5040774;28;20045;-80
2022/12/29 13:29:50;;;;;;;7.05;4.32;;;10.30;69.00;;;;;;5006151;28;20064;-81
2022/12/29 13:32:51;;;;;;;5.45;3.85;;;10.20;69.10;;;;;;5038404;28;20056;-81
2022/12/29 13:35:22;;;;;;;9.88;4.35;;;10.20;69.20;;;;;;5015204;28;20034;-81
2022/12/29 13:37:57;;;;;;;8.18;4.57;;;10.20;69.40;;;;;;5034393;28;20045;-80
2022/12/29 13:40:26;;;;;;;6.73;4.53;;;10.20;69.60;;;;;;5032369;28;20101;-80
2022/12/29 13:42:56;;;;;;;8.15;4.45;;;10.20;69.60;;;;;;5002701;28;20428;-79
2022/12/29 13:45:28;;;;;;;6.55;4.63;;;10.20;69.60;;;;;;4999715;28;20038;-81
2022/12/29 13:48:03;;;;;;;9.40;4.78;;;10.20;69.50;;;;;;4996773;28;20068;-81
2022/12/29 13:50:33;;;;;;;7.60;4.63;;;10.20;69.40;;;;;;4986230;28;20175;-81
2022/12/29 13:53:34;;;;;;;8.32;5.07;;;10.20;69.30;;;;;;5015908;28;20068;-82
2022/12/29 13:56:08;;;;;;;8.77;4.97;;;10.20;69.20;;;;;;4998755;28;20046;-80
2022/12/29 13:58:53;;;;;;;8.82;4.93;;;10.20;69.10;;;;;;4996398;28;20066;-80